Terminal Aerodrome Forecast
Issued by NWS Duluth, MN

Home | Current Version | Previous Version | Text Only | Print | Product List | Glossary On
Versions: 1 2 3 4 5 6 7 8 9 10 11 12 13 14 15 16 17 18 19 20 21 22 23 24 25 26 27 28 29 30 31 32 33
560
FTUS43 KDLH 010235 AAA
TAFINL
TAF AMD
KINL 010235Z 0103/0124 03008KT 2SM -SN BR BKN011 OVC018
     FM010900 35008KT P6SM -FZDZ OVC009
     FM011300 35009KT P6SM BKN015=

USA.gov is the U.S. government's official web portal to all federal, state and local government web resources and services.